createdAt,value
2022-10-20T00:01:24.946Z,92.00
2022-10-20T00:03:52.371Z,92.00
2022-10-20T00:06:25.050Z,91.90
2022-10-20T00:08:52.722Z,92.10
2022-10-20T00:11:21.412Z,92.20
2022-10-20T00:13:52.452Z,92.10
2022-10-20T00:16:20.711Z,91.90
2022-10-20T00:18:47.705Z,91.70
2022-10-20T00:21:18.102Z,91.50
2022-10-20T00:23:45.565Z,91.50
2022-10-20T00:26:16.203Z,91.50
2022-10-20T00:28:46.762Z,91.50
2022-10-20T00:31:14.141Z,91.60
2022-10-20T00:33:41.159Z,91.40
2022-10-20T00:36:10.854Z,91.40
2022-10-20T00:38:37.674Z,91.20
2022-10-20T00:41:06.214Z,91.30
2022-10-20T00:43:56.495Z,91.30
2022-10-20T00:46:41.558Z,91.20
2022-10-20T00:49:24.368Z,91.00
2022-10-20T00:51:52.607Z,91.00
2022-10-20T00:54:27.933Z,90.80
2022-10-20T00:56:56.630Z,91.10
2022-10-20T00:59:28.227Z,90.80
2022-10-20T01:01:56.311Z,90.70
2022-10-20T01:04:24.827Z,90.50
2022-10-20T01:06:51.721Z,90.40
2022-10-20T01:09:18.705Z,90.50
2022-10-20T01:11:57.182Z,90.70
2022-10-20T01:14:49.186Z,90.90
2022-10-20T01:17:41.520Z,90.70
2022-10-20T01:20:38.812Z,90.70
2022-10-20T01:23:30.075Z,90.70
2022-10-20T01:26:24.582Z,90.60
2022-10-20T01:29:11.231Z,90.30
2022-10-20T01:31:48.201Z,90.30
2022-10-20T01:34:37.929Z,90.50
2022-10-20T01:37:40.695Z,90.30
2022-10-20T01:40:23.623Z,90.60
2022-10-20T01:42:53.556Z,90.30
2022-10-20T01:45:24.314Z,90.40
2022-10-20T01:47:51.970Z,90.30
2022-10-20T01:50:19.348Z,90.10
2022-10-20T01:52:46.215Z,90.30
2022-10-20T01:55:18.164Z,90.40
2022-10-20T01:58:02.072Z,90.10
2022-10-20T02:00:29.032Z,90.30
2022-10-20T02:03:25.458Z,90.40
2022-10-20T02:06:16.525Z,90.30
2022-10-20T02:08:47.667Z,90.50
2022-10-20T02:11:40.681Z,90.40
2022-10-20T02:14:11.686Z,90.30
2022-10-20T02:16:44.881Z,90.00
2022-10-20T02:19:14.425Z,90.20
2022-10-20T02:21:41.309Z,90.20
2022-10-20T02:24:09.934Z,90.50
2022-10-20T02:26:39.330Z,90.10
2022-10-20T02:29:15.219Z,90.00
2022-10-20T02:31:46.245Z,90.30
2022-10-20T02:34:13.433Z,90.40
2022-10-20T02:36:43.017Z,89.90
2022-10-20T02:39:10.648Z,90.10
2022-10-20T02:41:37.952Z,90.30
2022-10-20T02:44:04.768Z,90.30
2022-10-20T02:46:31.477Z,90.00
2022-10-20T02:48:58.352Z,90.20
2022-10-20T02:51:25.095Z,90.00
2022-10-20T02:53:54.244Z,89.80
2022-10-20T02:56:23.704Z,89.80
2022-10-20T02:58:52.277Z,89.90
2022-10-20T03:01:26.410Z,89.90
2022-10-20T03:03:58.608Z,89.90
2022-10-20T03:06:26.160Z,89.80
2022-10-20T03:08:53.040Z,89.80
2022-10-20T03:11:19.807Z,89.80
2022-10-20T03:13:48.805Z,89.70
2022-10-20T03:16:17.560Z,89.80
2022-10-20T03:18:52.297Z,89.70
2022-10-20T03:21:19.225Z,89.80
2022-10-20T03:23:45.911Z,89.70
2022-10-20T03:26:12.960Z,89.60
2022-10-20T03:28:40.610Z,89.60
2022-10-20T03:31:07.857Z,89.60
2022-10-20T03:33:34.759Z,89.60
2022-10-20T03:36:01.522Z,89.50
2022-10-20T03:38:28.398Z,89.50
2022-10-20T03:40:55.469Z,89.40
2022-10-20T03:43:22.309Z,89.40
2022-10-20T03:45:49.156Z,89.40
2022-10-20T03:48:15.958Z,89.40
2022-10-20T03:50:43.419Z,89.50
2022-10-20T03:53:14.385Z,89.40
2022-10-20T03:55:41.301Z,89.40
2022-10-20T03:58:08.006Z,89.30
2022-10-20T04:00:34.932Z,89.40
2022-10-20T04:03:01.719Z,89.30
2022-10-20T04:05:30.867Z,89.40
2022-10-20T04:07:57.716Z,89.30
2022-10-20T04:10:24.612Z,89.40
2022-10-20T04:12:51.313Z,89.00
2022-10-20T04:15:21.192Z,89.20
2022-10-20T04:17:47.943Z,89.00
2022-10-20T04:20:15.035Z,89.20
2022-10-20T04:22:41.800Z,89.10
2022-10-20T04:25:12.354Z,89.10
2022-10-20T04:27:40.109Z,88.90
2022-10-20T04:30:07.258Z,89.00
2022-10-20T04:32:34.054Z,89.10
2022-10-20T04:35:01.127Z,89.10
2022-10-20T04:37:28.137Z,89.00
2022-10-20T04:39:59.428Z,88.90
2022-10-20T04:42:26.149Z,89.30
2022-10-20T04:44:52.960Z,89.00
2022-10-20T04:47:19.775Z,89.20
2022-10-20T04:49:46.468Z,89.30
2022-10-20T04:52:13.290Z,89.20
2022-10-20T04:54:40.084Z,89.10
2022-10-20T04:57:07.057Z,89.10
2022-10-20T04:59:34.008Z,89.20
2022-10-20T05:02:00.767Z,89.30
2022-10-20T05:04:28.252Z,89.60
2022-10-20T05:06:57.183Z,89.50
2022-10-20T05:09:24.985Z,89.60
2022-10-20T05:11:52.332Z,89.50
2022-10-20T05:14:19.557Z,89.70
2022-10-20T05:16:46.284Z,89.60
2022-10-20T05:19:14.192Z,89.60
2022-10-20T05:24:18.296Z,89.70
2022-10-20T05:26:48.109Z,90.00
2022-10-20T05:29:14.888Z,90.20
2022-10-20T05:31:47.646Z,90.20
2022-10-20T05:34:14.674Z,90.10
2022-10-20T05:36:46.333Z,90.10
2022-10-20T05:39:17.566Z,90.10
2022-10-20T05:41:46.357Z,89.90
2022-10-20T05:44:13.886Z,90.00
2022-10-20T05:46:42.528Z,89.90
2022-10-20T05:49:16.415Z,90.00
2022-10-20T05:51:46.251Z,90.00
2022-10-20T05:54:13.843Z,90.10
2022-10-20T05:56:44.196Z,90.10
2022-10-20T05:59:11.747Z,90.10
2022-10-20T06:01:41.299Z,90.10
2022-10-20T06:04:09.008Z,90.20
2022-10-20T06:06:36.650Z,90.10
2022-10-20T06:09:09.414Z,90.10
2022-10-20T06:11:39.510Z,90.10
2022-10-20T06:14:07.660Z,90.00
2022-10-20T06:16:34.830Z,90.10
2022-10-20T06:19:02.258Z,90.00
2022-10-20T06:21:31.648Z,89.70
2022-10-20T06:24:00.468Z,90.00
2022-10-20T06:26:38.958Z,90.10
2022-10-20T06:29:09.710Z,90.10
2022-10-20T06:31:57.754Z,90.00
2022-10-20T06:34:25.560Z,90.10
2022-10-20T06:36:54.259Z,90.50
2022-10-20T06:39:23.560Z,90.30
2022-10-20T06:41:54.037Z,89.70
2022-10-20T06:44:24.707Z,90.00
2022-10-20T06:46:53.014Z,89.60
2022-10-20T06:49:20.244Z,89.80
2022-10-20T06:51:50.383Z,88.70
2022-10-20T06:54:17.955Z,88.90
2022-10-20T06:56:45.756Z,88.80
2022-10-20T06:59:12.765Z,88.50
2022-10-20T07:01:42.367Z,88.50
2022-10-20T07:04:15.638Z,87.90
2022-10-20T07:06:44.560Z,87.80
2022-10-20T07:09:17.276Z,87.80
2022-10-20T07:11:44.545Z,87.90
2022-10-20T07:14:13.829Z,87.40
2022-10-20T07:16:40.911Z,87.00
2022-10-20T07:19:07.771Z,87.30
2022-10-20T07:21:38.428Z,87.30
2022-10-20T07:24:09.916Z,86.90
2022-10-20T07:26:40.710Z,86.00
2022-10-20T07:29:08.821Z,86.30
2022-10-20T07:31:38.962Z,87.00
2022-10-20T07:34:23.826Z,86.40
2022-10-20T07:36:52.248Z,86.10
2022-10-20T07:39:19.040Z,86.20
2022-10-20T07:41:48.083Z,86.80
2022-10-20T07:44:15.827Z,86.90
2022-10-20T07:46:45.575Z,86.60
2022-10-20T07:51:59.471Z,86.40
2022-10-20T07:54:26.395Z,86.10
2022-10-20T07:56:57.361Z,85.20
2022-10-20T07:59:24.698Z,86.20
2022-10-20T08:01:56.081Z,85.50
2022-10-20T08:04:28.402Z,85.50
2022-10-20T08:06:55.415Z,85.80
2022-10-20T08:09:24.797Z,83.90
2022-10-20T08:11:55.273Z,84.00
2022-10-20T08:14:23.206Z,84.10
2022-10-20T08:16:55.697Z,84.40
2022-10-20T08:19:30.300Z,83.40
2022-10-20T08:21:57.059Z,83.90
2022-10-20T08:24:23.853Z,82.60
2022-10-20T08:26:51.697Z,83.00
2022-10-20T08:29:26.754Z,82.60
2022-10-20T08:31:54.541Z,81.10
2022-10-20T08:34:21.302Z,81.10
2022-10-20T08:36:48.127Z,81.70
2022-10-20T08:39:14.876Z,80.70
2022-10-20T08:42:06.817Z,80.70
2022-10-20T08:44:35.809Z,80.80
2022-10-20T08:47:14.469Z,80.70
2022-10-20T08:49:46.162Z,80.30
2022-10-20T08:52:16.814Z,80.00
2022-10-20T08:54:43.765Z,79.90
2022-10-20T08:57:27.235Z,80.00
2022-10-20T08:59:59.475Z,80.20
2022-10-20T09:02:36.356Z,79.40
2022-10-20T09:05:07.047Z,79.60
2022-10-20T09:07:37.827Z,79.80
2022-10-20T09:10:24.235Z,79.60
2022-10-20T09:12:52.359Z,80.20
2022-10-20T09:15:21.316Z,79.00
2022-10-20T09:17:53.266Z,79.30
2022-10-20T09:20:25.745Z,78.50
2022-10-20T09:22:52.547Z,78.40
2022-10-20T09:25:27.586Z,77.60
2022-10-20T09:27:58.824Z,77.70
2022-10-20T09:30:37.290Z,77.70
2022-10-20T09:33:20.865Z,77.10
2022-10-20T09:35:50.957Z,77.30
2022-10-20T09:38:27.386Z,77.30
2022-10-20T09:41:10.406Z,77.30
2022-10-20T09:43:52.158Z,77.60
2022-10-20T09:46:28.004Z,77.60
2022-10-20T09:48:56.345Z,76.70
2022-10-20T09:51:32.480Z,77.30
2022-10-20T09:54:03.707Z,77.30
2022-10-20T09:56:42.647Z,77.40
2022-10-20T09:59:38.203Z,75.60
2022-10-20T10:02:29.484Z,75.00
2022-10-20T10:05:19.604Z,75.10
2022-10-20T10:07:58.579Z,75.90
2022-10-20T10:10:29.959Z,75.60
2022-10-20T10:13:21.201Z,74.60
2022-10-20T10:16:08.120Z,75.00
2022-10-20T10:18:37.759Z,74.60
2022-10-20T10:21:11.093Z,74.40
2022-10-20T10:23:54.612Z,74.60
2022-10-20T10:26:54.087Z,74.60
2022-10-20T10:29:28.142Z,74.40
2022-10-20T10:32:24.952Z,73.20
2022-10-20T10:35:26.263Z,72.70
2022-10-20T10:37:53.935Z,71.90
2022-10-20T10:40:24.895Z,71.70
2022-10-20T10:42:57.477Z,71.00
2022-10-20T10:45:31.147Z,71.20
2022-10-20T10:48:17.000Z,71.00
2022-10-20T10:51:01.971Z,71.40
2022-10-20T10:53:50.099Z,70.30
2022-10-20T10:56:38.802Z,71.10
2022-10-20T10:59:21.506Z,69.50
2022-10-20T11:02:00.496Z,69.10
2022-10-20T11:04:33.066Z,69.50
2022-10-20T11:07:27.641Z,68.60
2022-10-20T11:10:23.132Z,68.20
2022-10-20T11:13:08.793Z,67.90
2022-10-20T11:15:54.494Z,68.40
2022-10-20T11:18:39.738Z,68.60
2022-10-20T11:21:28.568Z,68.60
2022-10-20T11:24:01.706Z,68.60
2022-10-20T11:26:39.460Z,68.70
2022-10-20T11:29:14.175Z,69.00
2022-10-20T11:31:49.442Z,69.30
2022-10-20T11:34:30.934Z,68.90
2022-10-20T11:37:06.554Z,68.60
2022-10-20T11:39:49.145Z,68.70
2022-10-20T11:42:41.709Z,68.30
2022-10-20T11:45:30.376Z,68.20
2022-10-20T11:48:21.048Z,69.30
2022-10-20T11:51:10.809Z,68.40
2022-10-20T11:54:04.980Z,68.60
2022-10-20T11:56:58.682Z,68.70
2022-10-20T11:59:40.969Z,67.50
2022-10-20T12:02:29.511Z,67.50
2022-10-20T12:05:53.594Z,67.50
2022-10-20T12:08:41.682Z,68.20
2022-10-20T12:11:49.278Z,67.80
2022-10-20T12:14:21.072Z,67.90
2022-10-20T12:16:54.089Z,67.70
2022-10-20T12:19:28.519Z,67.50
2022-10-20T12:22:15.520Z,67.60
2022-10-20T12:25:03.986Z,67.60
2022-10-20T12:27:31.038Z,68.40
2022-10-20T12:30:26.213Z,68.40
2022-10-20T12:33:08.698Z,67.80
2022-10-20T12:35:58.582Z,66.70
2022-10-20T12:38:26.575Z,65.40
2022-10-20T12:40:57.976Z,65.10
2022-10-20T12:43:28.745Z,65.50
2022-10-20T12:46:04.953Z,65.30
2022-10-20T12:48:34.875Z,65.60
2022-10-20T12:51:15.032Z,65.40
2022-10-20T12:53:41.830Z,65.50
2022-10-20T12:56:11.643Z,65.70
2022-10-20T12:58:59.294Z,66.10
2022-10-20T13:01:28.307Z,66.40
2022-10-20T13:03:55.041Z,66.70
2022-10-20T13:06:27.658Z,66.40
2022-10-20T13:09:04.883Z,66.40
2022-10-20T13:11:38.690Z,67.00
2022-10-20T13:14:42.722Z,66.60
2022-10-20T13:17:09.407Z,66.30
2022-10-20T13:19:52.320Z,66.40
2022-10-20T13:22:49.651Z,66.60
2022-10-20T13:25:38.580Z,66.00
2022-10-20T13:28:29.259Z,65.70
2022-10-20T13:30:55.986Z,65.50
2022-10-20T13:34:02.394Z,64.90
2022-10-20T13:36:54.615Z,64.30
2022-10-20T13:39:45.394Z,64.40
2022-10-20T13:42:31.725Z,63.40
2022-10-20T13:45:33.163Z,62.50
2022-10-20T13:48:42.402Z,62.80
2022-10-20T13:51:25.430Z,62.40
2022-10-20T13:53:57.382Z,62.40
2022-10-20T13:56:34.996Z,63.60
2022-10-20T13:59:26.328Z,63.70
2022-10-20T14:01:58.831Z,63.40
2022-10-20T14:04:36.680Z,63.40
2022-10-20T14:07:10.326Z,63.00
2022-10-20T14:09:40.598Z,63.40
2022-10-20T14:12:25.375Z,63.70
2022-10-20T14:14:59.293Z,63.20
2022-10-20T14:17:40.684Z,62.90
2022-10-20T14:20:20.524Z,63.40
2022-10-20T14:22:48.086Z,63.40
2022-10-20T14:25:15.408Z,63.50
2022-10-20T14:27:42.792Z,63.70
2022-10-20T14:30:15.903Z,64.00
2022-10-20T14:32:44.058Z,64.10
2022-10-20T14:35:27.025Z,64.70
2022-10-20T14:38:04.473Z,65.30
2022-10-20T14:40:36.878Z,65.90
2022-10-20T14:43:07.065Z,65.80
2022-10-20T14:45:34.075Z,65.00
2022-10-20T14:48:04.407Z,65.20
2022-10-20T14:50:31.123Z,65.80
2022-10-20T14:52:58.196Z,65.60
2022-10-20T14:55:32.486Z,66.20
2022-10-20T14:58:00.996Z,66.10
2022-10-20T15:00:34.249Z,65.70
2022-10-20T15:03:06.759Z,66.40
2022-10-20T15:05:37.384Z,66.90
2022-10-20T15:08:14.906Z,66.60
2022-10-20T15:10:42.760Z,67.30
2022-10-20T15:13:31.819Z,68.00
2022-10-20T15:16:00.084Z,68.00
2022-10-20T15:18:29.079Z,68.00
2022-10-20T15:20:56.362Z,68.40
2022-10-20T15:23:29.546Z,68.00
2022-10-20T15:25:59.338Z,68.30
2022-10-20T15:28:42.727Z,68.70
2022-10-20T15:31:21.649Z,69.00
2022-10-20T15:33:48.997Z,69.50
2022-10-20T15:36:29.481Z,69.50
2022-10-20T15:38:56.712Z,70.20
2022-10-20T15:41:26.735Z,70.30
2022-10-20T15:43:54.075Z,70.40
2022-10-20T15:46:21.052Z,71.10
2022-10-20T15:48:48.121Z,70.80
2022-10-20T15:51:33.182Z,70.50
2022-10-20T15:54:00.402Z,71.20
2022-10-20T15:56:27.388Z,71.10
2022-10-20T15:58:55.131Z,71.60
2022-10-20T16:01:22.229Z,72.10
2022-10-20T16:03:49.718Z,72.70
2022-10-20T16:06:18.669Z,72.30
2022-10-20T16:08:47.431Z,72.70
2022-10-20T16:11:16.157Z,72.70
2022-10-20T16:13:43.195Z,72.90
2022-10-20T16:16:42.885Z,73.20
2022-10-20T16:19:09.674Z,73.80
2022-10-20T16:21:36.467Z,73.90
2022-10-20T16:24:03.281Z,73.80
2022-10-20T16:26:29.970Z,73.90
2022-10-20T16:28:56.746Z,74.10
2022-10-20T16:31:23.741Z,74.50
2022-10-20T16:33:50.451Z,74.10
2022-10-20T16:36:19.279Z,74.60
2022-10-20T16:38:46.060Z,74.40
2022-10-20T16:41:14.995Z,74.50
2022-10-20T16:43:44.734Z,74.10
2022-10-20T16:46:13.129Z,74.30
2022-10-20T16:48:42.612Z,74.00
2022-10-20T16:51:11.774Z,74.50
2022-10-20T16:53:39.486Z,75.60
2022-10-20T16:56:08.061Z,75.00
2022-10-20T16:58:36.138Z,75.80
2022-10-20T17:01:08.961Z,75.60
2022-10-20T17:03:37.218Z,75.50
2022-10-20T17:06:07.674Z,75.60
2022-10-20T17:08:37.254Z,75.90
2022-10-20T17:11:09.259Z,75.70
2022-10-20T17:13:37.533Z,76.20
2022-10-20T17:16:09.922Z,76.80
2022-10-20T17:18:37.074Z,76.50
2022-10-20T17:21:04.500Z,77.20
2022-10-20T17:23:33.992Z,77.20
2022-10-20T17:26:04.095Z,77.70
2022-10-20T17:28:32.159Z,78.10
2022-10-20T17:31:00.895Z,78.10
2022-10-20T17:33:30.622Z,78.00
2022-10-20T17:35:58.965Z,78.60
2022-10-20T17:38:28.437Z,78.70
2022-10-20T17:40:55.409Z,78.70
2022-10-20T17:43:23.265Z,78.90
2022-10-20T17:46:05.688Z,78.60
2022-10-20T17:48:32.815Z,78.60
2022-10-20T17:51:05.049Z,78.40
2022-10-20T17:53:33.208Z,78.60
2022-10-20T17:56:07.484Z,78.50
2022-10-20T17:58:34.671Z,78.60
2022-10-20T18:01:14.714Z,78.70
2022-10-20T18:03:42.256Z,78.80
2022-10-20T18:06:13.325Z,78.80
2022-10-20T18:08:40.547Z,79.00
2022-10-20T18:11:12.467Z,79.00
2022-10-20T18:13:40.349Z,79.10
2022-10-20T18:16:08.876Z,79.50
2022-10-20T18:18:36.367Z,79.40
2022-10-20T18:21:03.714Z,79.90
2022-10-20T18:23:31.353Z,80.00
2022-10-20T18:26:03.142Z,79.90
2022-10-20T18:28:29.897Z,80.80
2022-10-20T18:30:56.542Z,80.90
2022-10-20T18:33:23.253Z,80.90
2022-10-20T18:35:49.922Z,80.60
2022-10-20T18:38:16.697Z,81.40
2022-10-20T18:40:44.753Z,81.80
2022-10-20T18:43:11.436Z,80.90
2022-10-20T18:45:38.250Z,80.90
2022-10-20T18:48:05.586Z,81.40
2022-10-20T18:50:33.318Z,81.20
2022-10-20T18:53:01.441Z,81.50
2022-10-20T18:55:28.160Z,81.50
2022-10-20T18:57:54.795Z,82.40
2022-10-20T19:00:21.471Z,82.10
2022-10-20T19:02:55.648Z,82.00
2022-10-20T19:05:24.726Z,82.20
2022-10-20T19:07:51.407Z,82.20
2022-10-20T19:10:18.963Z,82.20
2022-10-20T19:12:48.053Z,83.20
2022-10-20T19:15:15.219Z,83.10
2022-10-20T19:17:41.969Z,82.80
2022-10-20T19:20:09.136Z,82.80
2022-10-20T19:22:35.837Z,83.00
2022-10-20T19:25:02.544Z,82.40
2022-10-20T19:27:32.333Z,82.30
2022-10-20T19:30:01.901Z,82.40
2022-10-20T19:32:29.642Z,82.30
2022-10-20T19:34:56.352Z,82.30
2022-10-20T19:37:25.330Z,82.30
2022-10-20T19:39:52.079Z,82.50
2022-10-20T19:42:18.808Z,82.10
2022-10-20T19:44:46.508Z,82.20
2022-10-20T19:47:13.394Z,82.30
2022-10-20T19:49:41.046Z,82.20
2022-10-20T19:52:08.703Z,82.20
2022-10-20T19:54:35.361Z,82.40
2022-10-20T19:57:03.097Z,82.60
2022-10-20T19:59:29.873Z,82.70
2022-10-20T20:01:56.598Z,82.80
2022-10-20T20:04:23.399Z,82.50
2022-10-20T20:06:50.207Z,82.70
2022-10-20T20:09:17.396Z,82.50
2022-10-20T20:11:48.195Z,82.40
2022-10-20T20:14:20.263Z,82.70
2022-10-20T20:16:47.806Z,82.70
2022-10-20T20:19:16.706Z,82.90
2022-10-20T20:21:44.513Z,83.40
2022-10-20T20:24:12.804Z,83.60
2022-10-20T20:26:40.840Z,83.40
2022-10-20T20:29:07.883Z,83.40
2022-10-20T20:31:36.256Z,83.20
2022-10-20T20:34:03.063Z,83.50
2022-10-20T20:36:30.151Z,83.40
2022-10-20T20:38:58.328Z,83.30
2022-10-20T20:41:30.331Z,83.40
2022-10-20T20:44:02.956Z,83.30
2022-10-20T20:46:33.663Z,83.30
2022-10-20T20:49:03.000Z,83.30
2022-10-20T20:51:33.385Z,83.40
2022-10-20T20:54:01.153Z,83.30
2022-10-20T20:56:27.772Z,83.30
2022-10-20T20:58:57.623Z,83.80
2022-10-20T21:01:31.093Z,83.30
2022-10-20T21:04:02.449Z,83.30
2022-10-20T21:06:34.014Z,83.30
2022-10-20T21:09:10.233Z,84.00
2022-10-20T21:11:37.911Z,83.90
2022-10-20T21:14:07.104Z,83.90
2022-10-20T21:16:36.227Z,83.90
2022-10-20T21:19:09.607Z,83.70
2022-10-20T21:21:47.162Z,83.80
2022-10-20T21:24:13.887Z,84.00
2022-10-20T21:26:40.595Z,83.90
2022-10-20T21:29:07.725Z,83.70
2022-10-20T21:31:34.561Z,83.70
2022-10-20T21:34:04.984Z,83.70
2022-10-20T21:36:35.361Z,84.00
2022-10-20T21:39:04.903Z,84.00
2022-10-20T21:41:35.345Z,84.40
2022-10-20T21:44:06.400Z,84.30
2022-10-20T21:46:34.440Z,84.70
2022-10-20T21:49:06.573Z,84.60
2022-10-20T21:51:39.315Z,85.20
2022-10-20T21:54:10.225Z,85.00
2022-10-20T21:56:38.779Z,85.10
2022-10-20T21:59:06.908Z,85.80
2022-10-20T22:01:34.180Z,86.10
2022-10-20T22:04:01.007Z,85.60
2022-10-20T22:06:28.086Z,86.20
2022-10-20T22:08:57.987Z,86.60
2022-10-20T22:11:30.556Z,86.30
2022-10-20T22:13:58.109Z,86.00
2022-10-20T22:16:27.756Z,86.50
2022-10-20T22:19:11.008Z,86.70
2022-10-20T22:21:40.167Z,86.80
2022-10-20T22:24:07.259Z,87.10
2022-10-20T22:26:34.751Z,86.90
2022-10-20T22:29:02.913Z,87.70
2022-10-20T22:31:29.612Z,87.50
2022-10-20T22:33:58.702Z,88.00
2022-10-20T22:36:26.303Z,87.80
2022-10-20T22:38:53.355Z,87.70
2022-10-20T22:41:20.113Z,88.10
2022-10-20T22:43:47.071Z,88.20
2022-10-20T22:46:18.741Z,88.50
2022-10-20T22:48:46.314Z,88.30
2022-10-20T22:51:13.106Z,88.30
2022-10-20T22:53:40.445Z,87.90
2022-10-20T22:56:19.155Z,87.70
2022-10-20T22:58:47.660Z,87.60
2022-10-20T23:01:19.980Z,87.80
2022-10-20T23:03:48.035Z,87.70
2022-10-20T23:06:26.013Z,87.40
2022-10-20T23:08:55.131Z,87.60
2022-10-20T23:11:24.836Z,87.20
2022-10-20T23:13:52.088Z,87.10
2022-10-20T23:16:19.534Z,87.30
2022-10-20T23:18:46.556Z,87.20
2022-10-20T23:21:14.221Z,87.10
2022-10-20T23:23:40.945Z,87.40
2022-10-20T23:26:08.885Z,87.30
2022-10-20T23:28:37.085Z,87.40
2022-10-20T23:31:09.475Z,87.90
2022-10-20T23:33:37.987Z,87.70
2022-10-20T23:36:05.143Z,87.30
2022-10-20T23:38:31.899Z,87.00
2022-10-20T23:40:58.576Z,87.30
2022-10-20T23:43:26.532Z,87.60
2022-10-20T23:45:53.323Z,87.60
2022-10-20T23:48:20.068Z,87.60
2022-10-20T23:50:47.062Z,87.40
2022-10-20T23:53:14.008Z,87.10
2022-10-20T23:55:41.679Z,87.40
2022-10-20T23:58:08.352Z,87.10
